Portada
METAR-TAF:

METAR-TAF

Aeroports :

Southampton, Anglaterra

latitud: 50-54N, longitud: 001-24W, altitud: 9 m

Observació

L'informe es va fer fa 24 minuts, a les 07:20 UTC
Vent 12 kt del Oest, variant entre Oest/Sud-Oest i Nord-Oest
Temperatura 4°C
Humitat 70%
Pressió 1003 hPa
Visibilitat 10 km o més
Escasses núvols a una alçada de 3500 ft

METAR: EGHI 260720Z 28012KT 250V310 9999 FEW035 04/M01 Q1003

Hora: 07:44 (07:44 UTC)

Pronòstic

L'informe es va fer fa 1 hora i 4 minuts, a les 06:40 UTC
Pronòstic vàlid del 26 a les 06 UTC al 26 a les 15 UTC
Vent 10 kt del Oest
Visibilitat 10 km o més
Núvols disperses a una alçada de 3500 ft
Probabilitat 30% :
Temporalment
l' 26 a les 06 UTC al 26 a les 15 UTC
Vent 15 kt del Oest amb ràfegues de 25 kt
Visibilitat: 7000 m
Cel ennuvolat a una alçada de 1200 ft
xàfecs de pluja

TAF: EGHI 260640Z 2606/2615 28010KT 9999 SCT035 PROB30 TEMPO 2606/2615 28015G25KT 7000 SHRA BKN012

Observacions i pronòstics meteorològics de més de 4000 aeroports (METAR i TAF).

Les estacions disponibles són els punts grocs i vermells al mapa.

Posi el ratolí al punt desitjat per veure el nom de l'estació.

Feu clic per veure les observacions i els pronòstics meteorològics.

Per canviar el mapa: feu clic els botons verds amb una creu de color negre per apropar; al botó verd amb un guió per allunyar la imatge; o en les fletxes verdes per a mapes adjacents.


METAR-TAF: